createdAt,value
2023-01-06T00:00:11.170Z,3.33
2023-01-06T00:02:39.943Z,2.73
2023-01-06T00:05:09.649Z,2.60
2023-01-06T00:07:39.217Z,2.67
2023-01-06T00:10:09.306Z,2.73
2023-01-06T00:12:39.431Z,2.37
2023-01-06T00:15:09.191Z,2.20
2023-01-06T00:17:37.899Z,2.73
2023-01-06T00:20:08.379Z,2.60
2023-01-06T00:22:37.096Z,3.00
2023-01-06T00:25:06.662Z,2.17
2023-01-06T00:27:35.315Z,2.10
2023-01-06T00:30:07.116Z,2.60
2023-01-06T00:32:35.772Z,2.90
2023-01-06T00:35:04.934Z,2.30
2023-01-06T00:37:33.690Z,2.40
2023-01-06T00:40:02.319Z,2.30
2023-01-06T00:42:31.014Z,2.50
2023-01-06T00:44:59.630Z,2.93
2023-01-06T00:47:29.602Z,5.83
2023-01-06T00:49:58.233Z,3.10
2023-01-06T00:52:26.897Z,2.70
2023-01-06T00:54:55.593Z,2.23
2023-01-06T00:57:24.327Z,2.20
2023-01-06T00:59:52.968Z,2.20
2023-01-06T01:02:21.799Z,2.13
2023-01-06T01:04:51.855Z,2.30
2023-01-06T01:07:20.521Z,2.50
2023-01-06T01:09:49.114Z,2.53
2023-01-06T01:12:17.941Z,2.40
2023-01-06T01:14:49.935Z,2.33
2023-01-06T01:17:21.011Z,2.50
2023-01-06T01:19:54.461Z,4.53
2023-01-06T01:22:23.958Z,3.30
2023-01-06T01:24:52.789Z,3.33
2023-01-06T01:27:21.503Z,2.67
2023-01-06T01:29:50.254Z,4.60
2023-01-06T01:32:18.905Z,2.70
2023-01-06T01:34:47.555Z,3.00
2023-01-06T01:37:17.579Z,2.97
2023-01-06T01:39:46.265Z,3.57
2023-01-06T01:42:20.529Z,3.17
2023-01-06T01:45:02.659Z,3.70
2023-01-06T01:47:47.389Z,2.87
2023-01-06T01:50:27.059Z,2.80
2023-01-06T01:53:02.147Z,2.90
2023-01-06T01:55:33.095Z,2.80
2023-01-06T01:58:06.161Z,2.63
2023-01-06T02:00:36.629Z,2.67
2023-01-06T02:03:07.354Z,2.53
2023-01-06T02:05:42.868Z,2.50
2023-01-06T02:08:22.963Z,2.43
2023-01-06T02:10:51.615Z,2.50
2023-01-06T02:13:20.423Z,2.30
2023-01-06T02:15:51.167Z,2.57
2023-01-06T02:18:36.977Z,1.90
2023-01-06T02:21:31.807Z,2.40
2023-01-06T02:24:50.325Z,2.50
2023-01-06T02:28:05.137Z,2.10
2023-01-06T02:31:19.396Z,2.03
2023-01-06T02:33:54.183Z,2.50
2023-01-06T02:36:32.783Z,2.17
2023-01-06T02:39:17.732Z,2.47
2023-01-06T02:41:54.591Z,2.70
2023-01-06T02:44:31.186Z,2.90
2023-01-06T02:47:15.170Z,3.07
2023-01-06T02:49:50.029Z,2.90
2023-01-06T02:52:31.300Z,2.37
2023-01-06T02:55:06.831Z,2.80
2023-01-06T02:57:43.475Z,2.40
2023-01-06T03:00:20.818Z,2.20
2023-01-06T03:02:58.114Z,2.37
2023-01-06T03:05:28.496Z,2.00
2023-01-06T03:07:59.059Z,2.20
2023-01-06T03:10:30.700Z,1.90
2023-01-06T03:13:05.730Z,2.73
2023-01-06T03:15:36.009Z,2.57
2023-01-06T03:18:06.880Z,2.53
2023-01-06T03:20:37.699Z,2.87
2023-01-06T03:23:07.518Z,3.53
2023-01-06T03:25:39.532Z,2.87
2023-01-06T03:28:09.822Z,2.80
2023-01-06T03:30:47.047Z,2.47
2023-01-06T03:33:24.813Z,2.70
2023-01-06T03:36:09.332Z,3.50
2023-01-06T03:38:50.480Z,3.13
2023-01-06T03:41:51.904Z,3.90
2023-01-06T03:44:32.344Z,4.13
2023-01-06T03:47:07.904Z,4.40
2023-01-06T03:49:46.683Z,5.53
2023-01-06T03:52:23.574Z,6.43
2023-01-06T03:54:59.123Z,6.50
2023-01-06T03:57:35.087Z,10.73
2023-01-06T04:00:12.539Z,5.97
2023-01-06T04:02:49.586Z,6.37
2023-01-06T04:05:25.120Z,6.33
2023-01-06T04:07:54.788Z,5.83
2023-01-06T04:10:25.411Z,5.53
2023-01-06T04:12:58.392Z,5.60
2023-01-06T04:15:32.654Z,5.70
2023-01-06T04:18:03.841Z,5.43
2023-01-06T04:20:36.992Z,5.17
2023-01-06T04:23:14.825Z,4.30
2023-01-06T04:25:45.192Z,4.10
2023-01-06T04:28:40.235Z,7.20
2023-01-06T04:31:10.207Z,4.00
2023-01-06T04:33:39.471Z,3.73
2023-01-06T04:36:12.831Z,3.60
2023-01-06T04:38:45.164Z,3.27
2023-01-06T04:41:13.955Z,3.70
2023-01-06T04:43:42.577Z,3.83
2023-01-06T04:46:11.259Z,3.87
2023-01-06T04:48:40.019Z,3.50
2023-01-06T04:51:10.293Z,3.20
2023-01-06T04:53:42.612Z,4.50
2023-01-06T04:56:14.022Z,3.10
2023-01-06T04:58:42.671Z,2.80
2023-01-06T05:01:13.253Z,3.40
2023-01-06T05:03:43.164Z,3.10
2023-01-06T05:06:13.247Z,2.90
2023-01-06T05:08:44.788Z,2.97
2023-01-06T05:11:18.167Z,3.70
2023-01-06T05:13:47.005Z,4.60
2023-01-06T05:16:20.285Z,2.87
2023-01-06T05:18:49.004Z,2.50
2023-01-06T05:21:18.062Z,2.67
2023-01-06T05:23:48.204Z,3.83
2023-01-06T05:26:20.111Z,2.47
2023-01-06T05:28:49.195Z,2.47
2023-01-06T05:31:18.484Z,2.50
2023-01-06T05:33:47.306Z,2.13
2023-01-06T05:36:18.273Z,2.20
2023-01-06T05:38:53.745Z,2.07
2023-01-06T05:41:22.484Z,2.10
2023-01-06T05:43:51.105Z,2.00
2023-01-06T05:46:19.785Z,2.27
2023-01-06T05:48:48.442Z,1.87
2023-01-06T05:51:18.367Z,1.70
2023-01-06T05:53:49.488Z,1.87
2023-01-06T05:56:20.818Z,1.50
2023-01-06T05:58:53.375Z,1.93
2023-01-06T06:01:25.717Z,2.77
2023-01-06T06:03:55.574Z,1.93
2023-01-06T06:06:26.831Z,1.77
2023-01-06T06:08:56.878Z,1.80
2023-01-06T06:11:25.876Z,1.90
2023-01-06T06:13:56.458Z,2.00
2023-01-06T06:16:28.141Z,2.63
2023-01-06T06:18:59.892Z,2.03
2023-01-06T06:21:31.333Z,1.90
2023-01-06T06:24:01.893Z,2.30
2023-01-06T06:26:30.797Z,2.87
2023-01-06T06:28:59.435Z,2.57
2023-01-06T06:31:30.167Z,2.80
2023-01-06T06:34:01.145Z,2.50
2023-01-06T06:36:31.298Z,3.63
2023-01-06T06:39:02.363Z,2.80
2023-01-06T06:41:31.206Z,2.97
2023-01-06T06:44:00.057Z,2.70
2023-01-06T06:46:28.673Z,2.70
2023-01-06T06:48:57.340Z,2.30
2023-01-06T06:51:26.010Z,3.10
2023-01-06T06:53:54.646Z,2.67
2023-01-06T06:56:24.764Z,2.50
2023-01-06T06:58:53.521Z,2.83
2023-01-06T07:01:25.821Z,2.93
2023-01-06T07:03:54.451Z,2.73
2023-01-06T07:06:27.918Z,3.37
2023-01-06T07:08:57.460Z,2.93
2023-01-06T07:11:27.538Z,3.43
2023-01-06T07:13:56.160Z,3.50
2023-01-06T07:16:26.759Z,3.00
2023-01-06T07:18:55.419Z,3.83
2023-01-06T07:21:24.210Z,3.10
2023-01-06T07:23:52.871Z,2.43
2023-01-06T07:26:21.498Z,1.83
2023-01-06T07:28:51.439Z,2.37
2023-01-06T07:31:20.283Z,2.27
2023-01-06T07:33:48.903Z,2.40
2023-01-06T07:36:17.543Z,2.70
2023-01-06T07:38:46.219Z,2.13
2023-01-06T07:41:14.856Z,2.30
2023-01-06T07:43:43.521Z,2.63
2023-01-06T07:46:13.610Z,2.30
2023-01-06T07:48:42.317Z,2.47
2023-01-06T07:51:10.981Z,1.87
2023-01-06T07:53:39.673Z,2.10
2023-01-06T07:56:08.774Z,2.17
2023-01-06T07:58:37.414Z,2.20
2023-01-06T08:01:09.847Z,1.97
2023-01-06T08:03:39.860Z,2.60
2023-01-06T08:06:10.623Z,1.93
2023-01-06T08:08:40.370Z,2.23
2023-01-06T08:11:12.803Z,1.77
2023-01-06T08:13:41.630Z,3.20
2023-01-06T08:16:12.011Z,1.63
2023-01-06T08:18:42.389Z,1.50
2023-01-06T08:21:12.664Z,1.63
2023-01-06T08:23:41.502Z,2.17
2023-01-06T08:26:13.671Z,1.63
2023-01-06T08:28:43.190Z,1.70
2023-01-06T08:31:12.955Z,2.13
2023-01-06T08:33:43.303Z,1.40
2023-01-06T08:36:17.825Z,1.63
2023-01-06T08:38:47.291Z,1.50
2023-01-06T08:41:16.623Z,0.90
2023-01-06T08:43:47.496Z,1.13
2023-01-06T08:46:19.502Z,1.00
2023-01-06T08:48:50.362Z,1.17
2023-01-06T08:51:23.723Z,1.20
2023-01-06T08:53:53.827Z,1.03
2023-01-06T08:56:24.901Z,2.30
2023-01-06T08:58:54.279Z,0.90
2023-01-06T09:01:25.932Z,1.43
2023-01-06T09:03:56.165Z,2.33
2023-01-06T09:06:25.053Z,5.67
2023-01-06T09:08:53.774Z,3.60
2023-01-06T09:11:22.461Z,2.87
2023-01-06T09:13:52.078Z,6.53
2023-01-06T09:16:21.398Z,7.10
2023-01-06T09:18:50.647Z,5.17
2023-01-06T09:21:22.947Z,3.50
2023-01-06T09:23:52.261Z,3.17
2023-01-06T09:26:21.812Z,2.47
2023-01-06T09:28:50.633Z,1.70
2023-01-06T09:31:19.400Z,1.40
2023-01-06T09:33:48.589Z,3.10
2023-01-06T09:36:17.148Z,1.67
2023-01-06T09:38:47.192Z,2.20
2023-01-06T09:42:01.456Z,2.50
2023-01-06T09:44:33.263Z,1.40
2023-01-06T09:47:03.824Z,1.97
2023-01-06T09:49:40.518Z,2.30
2023-01-06T09:52:20.138Z,2.10
2023-01-06T09:54:57.726Z,1.80
2023-01-06T09:57:35.171Z,1.80
2023-01-06T10:00:09.113Z,1.70
2023-01-06T10:02:40.814Z,1.50
2023-01-06T10:05:22.010Z,2.13
2023-01-06T10:08:00.446Z,3.90
2023-01-06T10:10:40.443Z,2.30
2023-01-06T10:13:32.927Z,3.40
2023-01-06T10:16:12.232Z,4.77
2023-01-06T10:18:52.009Z,5.13
2023-01-06T10:21:32.136Z,2.63
2023-01-06T10:24:35.158Z,2.47
2023-01-06T10:27:22.014Z,1.67
2023-01-06T10:29:52.133Z,2.03
2023-01-06T10:32:20.796Z,1.70
2023-01-06T10:34:52.293Z,2.77
2023-01-06T10:37:25.967Z,1.67
2023-01-06T10:40:03.362Z,1.47
2023-01-06T10:43:00.307Z,1.90
2023-01-06T10:45:33.954Z,2.33
2023-01-06T10:48:04.578Z,4.07
2023-01-06T10:50:35.838Z,5.37
2023-01-06T10:53:05.741Z,4.57
2023-01-06T10:55:42.929Z,4.07
2023-01-06T10:58:33.220Z,2.80
2023-01-06T11:01:08.356Z,2.47
2023-01-06T11:03:37.831Z,2.40
2023-01-06T11:06:15.761Z,1.90
2023-01-06T11:08:44.418Z,9.13
2023-01-06T11:11:27.707Z,11.47
2023-01-06T11:14:03.510Z,7.33
2023-01-06T11:16:33.888Z,6.70
2023-01-06T11:19:06.384Z,3.47
2023-01-06T11:21:41.631Z,3.17
2023-01-06T11:24:19.906Z,1.97
2023-01-06T11:26:54.528Z,2.20
2023-01-06T11:29:31.532Z,3.07
2023-01-06T11:32:06.915Z,2.00
2023-01-06T11:34:35.730Z,1.70
2023-01-06T11:37:04.386Z,1.80
2023-01-06T11:39:36.409Z,2.37
2023-01-06T11:42:11.788Z,1.50
2023-01-06T11:44:43.484Z,1.90
2023-01-06T11:47:17.407Z,1.67
2023-01-06T11:49:50.825Z,1.77
2023-01-06T11:52:25.911Z,3.47
2023-01-06T11:55:02.465Z,1.40
2023-01-06T11:57:41.776Z,2.00
2023-01-06T12:00:39.907Z,1.77
2023-01-06T12:03:18.828Z,1.40
2023-01-06T12:05:53.313Z,1.40
2023-01-06T12:08:26.008Z,1.10
2023-01-06T12:11:01.289Z,2.40
2023-01-06T12:13:32.235Z,2.03
2023-01-06T12:16:08.162Z,1.63
2023-01-06T12:18:39.758Z,1.20
2023-01-06T12:21:15.278Z,2.47
2023-01-06T12:23:46.838Z,1.40
2023-01-06T12:26:31.580Z,2.13
2023-01-06T12:29:01.365Z,1.60
2023-01-06T12:31:45.202Z,1.40
2023-01-06T12:34:21.458Z,0.87
2023-01-06T12:36:54.430Z,0.93
2023-01-06T12:39:33.719Z,1.10
2023-01-06T12:42:14.958Z,0.77
2023-01-06T12:44:50.562Z,0.80
2023-01-06T12:47:29.051Z,1.67
2023-01-06T12:50:02.361Z,2.27
2023-01-06T12:52:36.471Z,1.30
2023-01-06T12:55:08.003Z,1.70
2023-01-06T12:58:00.849Z,7.37
2023-01-06T13:00:43.261Z,3.27
2023-01-06T13:04:05.239Z,2.43
2023-01-06T13:06:54.230Z,4.07
2023-01-06T13:09:40.384Z,3.00
2023-01-06T13:12:48.303Z,2.13
2023-01-06T13:15:24.234Z,1.60
2023-01-06T13:18:09.872Z,4.67
2023-01-06T13:20:43.914Z,1.70
2023-01-06T13:23:48.223Z,2.63
2023-01-06T13:26:49.268Z,1.63
2023-01-06T13:29:33.664Z,2.53
2023-01-06T13:32:30.235Z,1.90
2023-01-06T13:35:25.755Z,1.60
2023-01-06T13:38:09.633Z,2.00
2023-01-06T13:40:41.750Z,1.63
2023-01-06T13:43:19.866Z,2.50
2023-01-06T13:45:54.532Z,2.70
2023-01-06T13:48:28.662Z,2.80
2023-01-06T13:50:57.667Z,2.00
2023-01-06T13:53:27.412Z,1.70
2023-01-06T13:56:31.878Z,1.83
2023-01-06T13:59:23.184Z,1.27
2023-01-06T14:01:55.897Z,1.43
2023-01-06T14:04:51.900Z,1.57
2023-01-06T14:07:36.929Z,2.33
2023-01-06T14:10:18.115Z,2.00
2023-01-06T14:12:49.965Z,1.40
2023-01-06T14:15:26.892Z,1.60
2023-01-06T14:17:55.606Z,2.27
2023-01-06T14:20:31.180Z,1.70
2023-01-06T14:23:02.116Z,1.70
2023-01-06T14:25:31.378Z,1.60
2023-01-06T14:28:27.926Z,1.63
2023-01-06T14:31:42.571Z,1.90
2023-01-06T14:34:14.401Z,1.50
2023-01-06T14:36:43.585Z,1.60
2023-01-06T14:39:22.519Z,5.70
2023-01-06T14:42:02.994Z,11.37
2023-01-06T14:44:44.324Z,10.47
2023-01-06T14:47:19.612Z,4.73
2023-01-06T14:49:57.105Z,2.83
2023-01-06T14:52:33.950Z,1.90
2023-01-06T14:55:04.967Z,2.93
2023-01-06T14:57:36.550Z,1.50
2023-01-06T15:00:27.149Z,1.87
2023-01-06T15:02:59.136Z,1.30
2023-01-06T15:05:31.564Z,1.60
2023-01-06T15:08:03.276Z,1.50
2023-01-06T15:10:35.599Z,1.70
2023-01-06T15:13:04.851Z,3.57
2023-01-06T15:15:38.223Z,2.00
2023-01-06T15:18:09.264Z,2.37
2023-01-06T15:20:43.395Z,4.60
2023-01-06T15:23:17.389Z,3.30
2023-01-06T15:25:50.168Z,3.30
2023-01-06T15:28:26.296Z,4.20
2023-01-06T15:30:57.367Z,3.00
2023-01-06T15:33:29.642Z,3.60
2023-01-06T15:35:59.499Z,5.47
2023-01-06T15:38:32.540Z,6.00
2023-01-06T15:41:01.733Z,4.23
2023-01-06T15:43:42.587Z,2.73
2023-01-06T15:46:14.030Z,2.33
2023-01-06T15:48:48.823Z,2.90
2023-01-06T15:51:21.704Z,3.90
2023-01-06T15:53:57.773Z,3.90
2023-01-06T15:56:29.549Z,4.83
2023-01-06T15:59:00.175Z,3.00
2023-01-06T16:01:30.352Z,3.27
2023-01-06T16:04:02.028Z,3.23
2023-01-06T16:06:32.898Z,3.23
2023-01-06T16:09:30.792Z,2.90
2023-01-06T16:12:16.983Z,3.73
2023-01-06T16:14:49.107Z,2.20
2023-01-06T16:17:30.599Z,1.93
2023-01-06T16:20:02.518Z,2.20
2023-01-06T16:22:36.269Z,2.40
2023-01-06T16:25:09.536Z,3.03
2023-01-06T16:27:38.350Z,3.30
2023-01-06T16:30:24.861Z,3.17
2023-01-06T16:32:56.063Z,2.00
2023-01-06T16:35:27.397Z,2.20
2023-01-06T16:37:56.395Z,2.40
2023-01-06T16:40:27.453Z,2.43
2023-01-06T16:43:00.378Z,2.50
2023-01-06T16:45:36.455Z,1.80
2023-01-06T16:48:07.080Z,1.90
2023-01-06T16:50:41.588Z,6.30
2023-01-06T16:53:16.767Z,14.90
2023-01-06T16:55:45.879Z,11.57
2023-01-06T16:58:18.822Z,18.57
2023-01-06T17:00:52.562Z,17.20
2023-01-06T17:03:25.280Z,11.40
2023-01-06T17:05:54.714Z,5.87
2023-01-06T17:08:29.773Z,3.63
2023-01-06T17:11:01.404Z,8.43
2023-01-06T17:13:38.995Z,5.33
2023-01-06T17:16:21.315Z,2.40
2023-01-06T17:18:55.210Z,2.83
2023-01-06T17:21:27.309Z,3.37
2023-01-06T17:23:59.542Z,2.80
2023-01-06T17:26:28.796Z,3.50
2023-01-06T17:28:59.220Z,3.33
2023-01-06T17:31:33.834Z,2.50
2023-01-06T17:34:13.812Z,2.47
2023-01-06T17:36:46.325Z,2.83
2023-01-06T17:39:20.634Z,3.10
2023-01-06T17:41:49.391Z,2.70
2023-01-06T17:44:21.070Z,3.90
2023-01-06T17:46:49.926Z,4.37
2023-01-06T17:49:36.315Z,5.27
2023-01-06T17:52:17.442Z,5.40
2023-01-06T17:55:13.085Z,9.17
2023-01-06T17:57:46.959Z,7.40
2023-01-06T18:00:24.182Z,7.07
2023-01-06T18:02:59.112Z,10.63
2023-01-06T18:06:21.039Z,10.20
2023-01-06T18:08:51.764Z,6.63
2023-01-06T18:11:33.645Z,6.43
2023-01-06T18:14:34.101Z,7.27
2023-01-06T18:17:17.388Z,5.00
2023-01-06T18:19:46.129Z,4.40
2023-01-06T18:22:19.956Z,4.97
2023-01-06T18:24:51.052Z,5.10
2023-01-06T18:27:25.063Z,5.13
2023-01-06T18:29:54.542Z,3.87
2023-01-06T18:32:31.428Z,3.37
2023-01-06T18:35:02.549Z,4.03
2023-01-06T18:37:36.957Z,3.87
2023-01-06T18:40:09.251Z,3.00
2023-01-06T18:42:39.483Z,2.70
2023-01-06T18:45:24.015Z,2.50
2023-01-06T18:47:57.027Z,1.87
2023-01-06T18:50:33.955Z,1.60
2023-01-06T18:53:15.973Z,2.07
2023-01-06T18:55:46.205Z,1.53
2023-01-06T18:58:39.032Z,1.30
2023-01-06T19:01:19.583Z,2.40
2023-01-06T19:04:02.807Z,1.27
2023-01-06T19:06:42.046Z,1.60
2023-01-06T19:09:20.075Z,2.20
2023-01-06T19:11:55.275Z,1.83
2023-01-06T19:14:23.890Z,2.20
2023-01-06T19:16:56.230Z,1.87
2023-01-06T19:19:29.953Z,1.67
2023-01-06T19:22:24.122Z,1.50
2023-01-06T19:25:01.358Z,1.33
2023-01-06T19:27:40.793Z,2.33
2023-01-06T19:30:42.412Z,2.43
2023-01-06T19:33:37.494Z,1.43
2023-01-06T19:36:37.986Z,1.83
2023-01-06T19:39:26.355Z,2.50
2023-01-06T19:42:01.858Z,1.73
2023-01-06T19:44:34.659Z,1.50
2023-01-06T19:47:18.681Z,1.77
2023-01-06T19:49:52.913Z,1.60
2023-01-06T19:52:35.437Z,1.40
2023-01-06T19:55:20.788Z,1.60
2023-01-06T19:57:54.081Z,2.53
2023-01-06T20:00:30.653Z,2.97
2023-01-06T20:03:03.570Z,2.20
2023-01-06T20:05:33.095Z,1.90
2023-01-06T20:08:01.721Z,1.83
2023-01-06T20:10:30.374Z,1.40
2023-01-06T20:13:00.338Z,1.33
2023-01-06T20:15:28.989Z,1.83
2023-01-06T20:17:57.588Z,1.43
2023-01-06T20:20:26.233Z,1.40
2023-01-06T20:22:54.888Z,1.33
2023-01-06T20:25:23.640Z,1.57
2023-01-06T20:27:53.726Z,1.10
2023-01-06T20:30:23.725Z,1.50
2023-01-06T20:32:52.350Z,1.30
2023-01-06T20:35:21.243Z,1.23
2023-01-06T20:37:50.091Z,1.27
2023-01-06T20:40:19.391Z,1.20
2023-01-06T20:42:48.037Z,0.90
2023-01-06T20:45:16.719Z,1.60
2023-01-06T20:47:46.777Z,1.20
2023-01-06T20:50:16.727Z,0.83
2023-01-06T20:52:46.408Z,2.50
2023-01-06T20:55:16.120Z,1.70
2023-01-06T20:57:44.777Z,1.50
2023-01-06T21:00:14.884Z,1.40
2023-01-06T21:02:43.561Z,1.10
2023-01-06T21:05:13.833Z,1.20
2023-01-06T21:07:42.494Z,2.60
2023-01-06T21:10:11.434Z,4.00
2023-01-06T21:12:40.178Z,1.80
2023-01-06T21:15:10.477Z,1.50
2023-01-06T21:17:39.472Z,1.53
2023-01-06T21:20:10.490Z,1.40
2023-01-06T21:22:40.559Z,1.10
2023-01-06T21:25:10.137Z,1.10
2023-01-06T21:27:38.722Z,3.43
2023-01-06T21:30:08.766Z,1.10
2023-01-06T21:32:37.424Z,1.00
2023-01-06T21:35:06.757Z,1.77
2023-01-06T21:37:35.386Z,1.43
2023-01-06T21:40:08.303Z,1.67
2023-01-06T21:42:54.504Z,1.63
2023-01-06T21:45:23.557Z,1.23
2023-01-06T21:47:52.386Z,1.40
2023-01-06T21:50:23.591Z,2.53
2023-01-06T21:52:54.652Z,1.90
2023-01-06T21:55:25.362Z,1.00
2023-01-06T21:57:54.203Z,1.50
2023-01-06T22:00:22.952Z,1.17
2023-01-06T22:02:54.719Z,0.97
2023-01-06T22:05:23.985Z,1.33
2023-01-06T22:07:54.402Z,1.00
2023-01-06T22:10:27.436Z,1.20
2023-01-06T22:12:59.215Z,1.17
2023-01-06T22:15:29.296Z,1.27
2023-01-06T22:18:00.254Z,0.80
2023-01-06T22:20:31.561Z,1.30
2023-01-06T22:23:02.313Z,1.40
2023-01-06T22:25:32.662Z,1.00
2023-01-06T22:28:03.170Z,1.40
2023-01-06T22:30:31.961Z,1.40
2023-01-06T22:33:00.568Z,2.20
2023-01-06T22:35:29.252Z,1.37
2023-01-06T22:37:59.203Z,1.27
2023-01-06T22:40:28.485Z,1.10
2023-01-06T22:42:58.578Z,1.27
2023-01-06T22:45:27.200Z,2.03
2023-01-06T22:47:55.834Z,1.30
2023-01-06T22:50:24.895Z,2.97
2023-01-06T22:52:53.524Z,1.83
2023-01-06T22:55:24.669Z,1.00
2023-01-06T22:57:53.276Z,2.57
2023-01-06T23:00:23.409Z,1.10
2023-01-06T23:02:52.082Z,2.83
2023-01-06T23:05:20.829Z,1.60
2023-01-06T23:07:49.448Z,1.63
2023-01-06T23:10:18.245Z,1.40
2023-01-06T23:12:46.942Z,1.20
2023-01-06T23:15:15.735Z,1.10
2023-01-06T23:17:46.239Z,1.30
2023-01-06T23:20:14.860Z,2.30
2023-01-06T23:22:43.493Z,1.57
2023-01-06T23:25:12.364Z,1.33
2023-01-06T23:27:41.255Z,2.13
2023-01-06T23:30:11.464Z,1.40
2023-01-06T23:32:40.078Z,1.13
2023-01-06T23:35:10.720Z,1.33
2023-01-06T23:37:39.295Z,1.10
2023-01-06T23:40:09.868Z,1.30
2023-01-06T23:42:48.078Z,2.37
2023-01-06T23:45:17.561Z,2.47
2023-01-06T23:47:46.185Z,1.10
2023-01-06T23:50:16.303Z,1.30
2023-01-06T23:52:44.872Z,1.70
2023-01-06T23:55:13.509Z,0.97
2023-01-06T23:57:42.154Z,2.40
